createdAt,value
2019-01-27T00:00:34.873Z,4.53
2019-01-27T00:03:03.178Z,4.20
2019-01-27T00:05:34.742Z,4.63
2019-01-27T00:08:03.193Z,4.47
2019-01-27T00:10:31.438Z,4.33
2019-01-27T00:12:59.902Z,4.23
2019-01-27T00:15:28.174Z,3.97
2019-01-27T00:17:56.489Z,4.23
2019-01-27T00:20:24.746Z,4.23
2019-01-27T00:22:53.163Z,4.20
2019-01-27T00:25:21.480Z,5.17
2019-01-27T00:27:49.710Z,4.37
2019-01-27T00:30:20.306Z,3.90
2019-01-27T00:32:48.650Z,4.30
2019-01-27T00:35:16.907Z,3.90
2019-01-27T00:37:45.326Z,4.27
2019-01-27T00:40:13.706Z,4.00
2019-01-27T00:42:42.209Z,3.97
2019-01-27T00:45:12.091Z,4.23
2019-01-27T00:47:40.305Z,3.80
2019-01-27T00:50:09.646Z,4.33
2019-01-27T00:52:37.905Z,4.10
2019-01-27T00:55:08.246Z,4.13
2019-01-27T00:57:37.322Z,4.10
2019-01-27T01:00:07.962Z,4.00
2019-01-27T01:02:36.947Z,4.07
2019-01-27T01:05:06.061Z,4.10
2019-01-27T01:07:34.311Z,4.30
2019-01-27T01:10:02.593Z,4.03
2019-01-27T01:12:30.849Z,4.03
2019-01-27T01:14:59.130Z,3.90
2019-01-27T01:17:27.375Z,3.90
2019-01-27T01:19:55.641Z,3.80
2019-01-27T01:22:23.926Z,4.37
2019-01-27T01:24:52.941Z,4.23
2019-01-27T01:27:22.065Z,3.90
2019-01-27T01:29:51.075Z,3.60
2019-01-27T01:32:20.042Z,3.93
2019-01-27T01:34:48.285Z,3.73
2019-01-27T01:37:16.511Z,3.90
2019-01-27T01:39:44.794Z,4.10
2019-01-27T01:42:19.743Z,3.77
2019-01-27T01:44:48.547Z,4.30
2019-01-27T01:47:16.814Z,3.93
2019-01-27T01:49:45.045Z,3.60
2019-01-27T01:52:13.306Z,3.80
2019-01-27T01:54:41.698Z,3.90
2019-01-27T01:57:09.966Z,3.53
2019-01-27T01:59:38.218Z,3.57
2019-01-27T02:02:06.485Z,3.70
2019-01-27T02:04:34.822Z,3.63
2019-01-27T02:07:03.146Z,3.50
2019-01-27T02:09:31.401Z,3.87
2019-01-27T02:11:59.678Z,4.07
2019-01-27T02:14:27.928Z,3.70
2019-01-27T02:16:56.360Z,3.27
2019-01-27T02:19:24.614Z,3.03
2019-01-27T02:21:53.064Z,3.83
2019-01-27T02:24:21.310Z,3.20
2019-01-27T02:26:49.564Z,3.17
2019-01-27T02:29:17.859Z,3.43
2019-01-27T02:31:46.114Z,3.47
2019-01-27T02:34:14.366Z,3.10
2019-01-27T02:36:42.643Z,2.93
2019-01-27T02:39:10.881Z,3.10
2019-01-27T02:41:39.158Z,2.83
2019-01-27T02:44:07.413Z,3.60
2019-01-27T02:46:35.662Z,2.93
2019-01-27T02:49:04.028Z,3.17
2019-01-27T02:51:32.254Z,2.70
2019-01-27T02:54:01.233Z,2.60
2019-01-27T02:56:29.837Z,2.90
2019-01-27T02:58:58.125Z,3.00
2019-01-27T03:01:26.455Z,2.40
2019-01-27T03:03:54.657Z,2.23
2019-01-27T03:06:27.148Z,2.60
2019-01-27T03:09:00.052Z,3.30
2019-01-27T03:11:28.276Z,2.50
2019-01-27T03:13:56.586Z,2.40
2019-01-27T03:16:24.844Z,2.40
2019-01-27T03:18:54.732Z,2.67
2019-01-27T03:21:23.014Z,2.50
2019-01-27T03:23:51.327Z,2.10
2019-01-27T03:26:19.607Z,2.20
2019-01-27T03:28:47.845Z,2.30
2019-01-27T03:31:16.115Z,2.67
2019-01-27T03:33:44.595Z,2.23
2019-01-27T03:36:13.010Z,2.20
2019-01-27T03:38:41.352Z,1.93
2019-01-27T03:41:09.587Z,2.23
2019-01-27T03:43:37.967Z,1.90
2019-01-27T03:46:06.304Z,2.33
2019-01-27T03:48:35.271Z,2.20
2019-01-27T03:51:03.478Z,2.30
2019-01-27T03:53:31.819Z,2.33
2019-01-27T03:56:00.068Z,2.27
2019-01-27T03:58:28.342Z,2.53
2019-01-27T04:00:56.614Z,2.40
2019-01-27T04:03:46.866Z,2.33
2019-01-27T04:06:15.674Z,2.77
2019-01-27T04:08:43.964Z,2.47
2019-01-27T04:11:12.292Z,2.00
2019-01-27T04:13:40.548Z,2.17
2019-01-27T04:16:09.763Z,2.10
2019-01-27T04:18:38.022Z,2.40
2019-01-27T04:21:07.239Z,2.50
2019-01-27T04:23:35.504Z,2.33
2019-01-27T04:26:03.757Z,2.40
2019-01-27T04:28:32.050Z,2.00
2019-01-27T04:31:00.320Z,2.70
2019-01-27T04:33:28.561Z,2.13
2019-01-27T04:35:56.838Z,2.30
2019-01-27T04:38:25.186Z,2.20
2019-01-27T04:40:53.555Z,2.20
2019-01-27T04:43:21.867Z,2.30
2019-01-27T04:45:50.150Z,2.20
2019-01-27T04:48:18.458Z,2.13
2019-01-27T04:50:46.762Z,2.13
2019-01-27T04:53:15.014Z,2.20
2019-01-27T04:55:43.226Z,1.90
2019-01-27T04:58:11.478Z,1.83
2019-01-27T05:00:39.862Z,2.37
2019-01-27T05:03:14.288Z,2.20
2019-01-27T05:05:42.554Z,2.20
2019-01-27T05:08:10.795Z,2.17
2019-01-27T05:10:39.042Z,2.20
2019-01-27T05:13:07.309Z,1.90
2019-01-27T05:15:35.593Z,2.20
2019-01-27T05:18:03.802Z,2.13
2019-01-27T05:20:32.953Z,1.90
2019-01-27T05:23:01.217Z,1.90
2019-01-27T05:25:29.534Z,1.80
2019-01-27T05:27:58.558Z,1.93
2019-01-27T05:30:26.954Z,2.00
2019-01-27T05:32:55.232Z,1.80
2019-01-27T05:35:23.543Z,1.90
2019-01-27T05:37:51.809Z,1.63
2019-01-27T05:40:20.078Z,2.00
2019-01-27T05:42:48.662Z,1.73
2019-01-27T05:45:16.925Z,1.83
2019-01-27T05:47:45.229Z,1.93
2019-01-27T05:50:14.632Z,1.80
2019-01-27T05:52:43.048Z,1.70
2019-01-27T05:55:12.741Z,2.00
2019-01-27T05:57:41.872Z,2.10
2019-01-27T06:00:14.631Z,1.70
2019-01-27T06:02:42.978Z,1.50
2019-01-27T06:05:11.305Z,1.60
2019-01-27T06:07:40.212Z,1.77
2019-01-27T06:10:09.729Z,1.63
2019-01-27T06:12:37.998Z,1.73
2019-01-27T06:15:07.765Z,1.87
2019-01-27T06:17:36.082Z,1.87
2019-01-27T06:20:06.497Z,1.40
2019-01-27T06:22:35.447Z,1.70
2019-01-27T06:25:03.985Z,2.00
2019-01-27T06:27:32.191Z,1.50
2019-01-27T06:30:00.420Z,1.70
2019-01-27T06:32:40.594Z,1.40
2019-01-27T06:35:08.878Z,1.80
2019-01-27T06:37:37.159Z,1.60
2019-01-27T06:40:05.786Z,1.70
2019-01-27T06:42:34.077Z,1.70
2019-01-27T06:45:02.332Z,1.80
2019-01-27T06:47:30.590Z,1.60
2019-01-27T06:49:59.041Z,1.70
2019-01-27T06:52:27.270Z,1.67
2019-01-27T06:54:55.570Z,1.60
2019-01-27T06:57:23.803Z,2.13
2019-01-27T06:59:57.667Z,1.60
2019-01-27T07:02:30.267Z,1.60
2019-01-27T07:05:10.353Z,1.97
2019-01-27T07:07:42.806Z,1.80
2019-01-27T07:11:16.578Z,1.63
2019-01-27T07:15:56.052Z,1.53
2019-01-27T07:19:32.298Z,1.60
2019-01-27T07:22:09.729Z,1.50
2019-01-27T07:24:44.210Z,1.60
2019-01-27T07:27:19.661Z,1.57
2019-01-27T07:29:55.009Z,1.43
2019-01-27T07:33:26.719Z,1.23
2019-01-27T07:36:03.134Z,1.70
2019-01-27T07:38:37.527Z,1.33
2019-01-27T07:41:28.224Z,1.50
2019-01-27T07:44:32.074Z,1.40
2019-01-27T07:47:04.587Z,1.57
2019-01-27T07:49:37.638Z,1.50
2019-01-27T07:52:14.114Z,1.47
2019-01-27T07:54:46.682Z,1.37
2019-01-27T07:57:20.292Z,1.40
2019-01-27T07:59:53.641Z,1.50
2019-01-27T08:02:30.089Z,1.30
2019-01-27T08:05:12.203Z,1.43
2019-01-27T08:09:48.770Z,1.37
2019-01-27T08:12:25.290Z,1.30
2019-01-27T08:17:03.664Z,1.53
2019-01-27T08:19:52.442Z,1.40
2019-01-27T08:22:24.943Z,1.30
2019-01-27T08:27:06.087Z,1.47
2019-01-27T08:29:38.579Z,1.17
2019-01-27T08:32:17.967Z,1.40
2019-01-27T08:34:51.514Z,1.27
2019-01-27T08:37:41.623Z,1.50
2019-01-27T08:40:33.113Z,1.63
2019-01-27T08:43:09.789Z,1.40
2019-01-27T08:45:57.295Z,1.40
2019-01-27T08:48:25.594Z,1.80
2019-01-27T08:50:55.178Z,1.40
2019-01-27T08:53:23.508Z,1.57
2019-01-27T08:55:51.867Z,1.80
2019-01-27T08:58:20.130Z,1.50
2019-01-27T09:00:58.219Z,1.33
2019-01-27T09:03:32.702Z,1.53
2019-01-27T09:06:10.274Z,1.40
2019-01-27T09:08:43.682Z,1.60
2019-01-27T09:12:15.708Z,1.60
2019-01-27T09:14:50.179Z,1.70
2019-01-27T09:17:23.815Z,1.70
2019-01-27T09:19:57.361Z,1.43
2019-01-27T09:22:31.716Z,1.73
2019-01-27T09:25:07.091Z,1.50
2019-01-27T09:27:44.478Z,1.40
2019-01-27T09:30:21.910Z,1.70
2019-01-27T09:32:58.254Z,1.70
2019-01-27T09:35:31.830Z,1.30
2019-01-27T09:38:36.211Z,1.40
2019-01-27T09:41:09.493Z,1.40
2019-01-27T09:43:43.838Z,1.43
2019-01-27T09:46:53.099Z,2.27
2019-01-27T09:49:30.516Z,1.70
2019-01-27T09:52:03.940Z,1.80
2019-01-27T09:54:37.447Z,1.30
2019-01-27T09:57:42.226Z,1.20
2019-01-27T10:00:25.098Z,1.40
2019-01-27T10:03:05.390Z,1.30
2019-01-27T10:07:45.666Z,1.20
2019-01-27T10:10:22.552Z,1.37
2019-01-27T10:12:55.062Z,1.40
2019-01-27T10:15:42.553Z,1.30
2019-01-27T10:18:15.162Z,1.30
2019-01-27T10:20:48.936Z,1.20
2019-01-27T10:24:26.246Z,1.40
2019-01-27T10:27:14.950Z,1.40
2019-01-27T10:29:47.474Z,1.27
2019-01-27T10:32:19.933Z,1.43
2019-01-27T10:36:55.849Z,1.30
2019-01-27T10:39:30.143Z,1.50
2019-01-27T10:42:06.511Z,1.40
2019-01-27T10:44:45.278Z,1.60
2019-01-27T10:47:20.739Z,1.50
2019-01-27T10:49:53.234Z,1.57
2019-01-27T10:52:29.724Z,1.50
2019-01-27T10:55:05.095Z,1.27
2019-01-27T10:57:38.443Z,1.60
2019-01-27T11:02:18.284Z,1.40
2019-01-27T11:04:53.562Z,1.63
2019-01-27T11:08:25.471Z,1.40
2019-01-27T11:11:00.511Z,1.13
2019-01-27T11:13:42.402Z,1.50
2019-01-27T11:17:15.509Z,1.43
2019-01-27T11:19:49.216Z,1.47
2019-01-27T11:22:24.662Z,1.40
2019-01-27T11:25:02.226Z,1.50
2019-01-27T11:27:40.726Z,1.77
2019-01-27T11:30:18.474Z,1.73
2019-01-27T11:34:58.558Z,1.33
2019-01-27T11:37:46.031Z,1.50
2019-01-27T11:40:21.465Z,1.47
2019-01-27T11:42:55.965Z,1.83
2019-01-27T11:45:30.485Z,1.57
2019-01-27T11:48:05.678Z,1.57
2019-01-27T11:50:39.058Z,1.67
2019-01-27T11:53:08.549Z,1.30
2019-01-27T11:55:36.757Z,1.67
2019-01-27T11:58:05.154Z,1.53
2019-01-27T12:00:36.549Z,1.37
2019-01-27T12:03:04.834Z,1.50
2019-01-27T12:05:33.061Z,1.83
2019-01-27T12:08:01.324Z,1.27
2019-01-27T12:10:29.562Z,1.30
2019-01-27T12:12:57.810Z,1.50
2019-01-27T12:15:26.187Z,1.40
2019-01-27T12:17:54.434Z,1.30
2019-01-27T12:20:22.718Z,1.37
2019-01-27T12:22:50.994Z,1.53
2019-01-27T12:25:19.199Z,1.70
2019-01-27T12:27:47.491Z,1.53
2019-01-27T12:30:17.430Z,1.30
2019-01-27T12:32:45.674Z,1.30
2019-01-27T12:35:13.913Z,1.37
2019-01-27T12:37:42.214Z,1.93
2019-01-27T12:40:13.555Z,1.50
2019-01-27T12:42:41.858Z,1.57
2019-01-27T12:45:11.654Z,1.60
2019-01-27T12:47:40.792Z,2.10
2019-01-27T12:50:10.808Z,2.03
2019-01-27T12:52:39.026Z,2.03
2019-01-27T12:55:08.454Z,1.93
2019-01-27T12:57:36.740Z,2.30
2019-01-27T13:00:11.191Z,1.97
2019-01-27T13:02:39.534Z,2.30
2019-01-27T13:05:10.331Z,2.23
2019-01-27T13:07:36.530Z,1.87
2019-01-27T13:10:07.078Z,2.30
2019-01-27T13:12:36.577Z,1.90
2019-01-27T13:15:05.907Z,2.13
2019-01-27T13:17:34.234Z,2.00
2019-01-27T13:20:02.551Z,2.27
2019-01-27T13:22:30.834Z,2.40
2019-01-27T13:24:59.061Z,2.00
2019-01-27T13:27:27.325Z,1.90
2019-01-27T13:29:55.586Z,2.10
2019-01-27T13:32:23.967Z,3.17
2019-01-27T13:34:56.183Z,2.43
2019-01-27T13:37:20.550Z,2.30
2019-01-27T13:39:48.902Z,2.97
2019-01-27T13:42:17.163Z,2.93
2019-01-27T13:44:45.654Z,2.00
2019-01-27T13:47:13.915Z,2.40
2019-01-27T13:49:42.146Z,2.40
2019-01-27T13:52:10.418Z,2.40
2019-01-27T13:54:38.830Z,2.07
2019-01-27T13:57:07.127Z,2.50
2019-01-27T13:59:35.393Z,2.93
2019-01-27T14:02:03.639Z,2.83
2019-01-27T14:04:31.940Z,6.23
2019-01-27T14:07:00.202Z,36.43
2019-01-27T14:09:28.522Z,16.97
2019-01-27T14:11:56.776Z,22.43
2019-01-27T14:14:25.085Z,8.33
2019-01-27T14:16:54.283Z,2.60
2019-01-27T14:19:22.634Z,2.37
2019-01-27T14:21:50.885Z,2.13
2019-01-27T14:24:19.120Z,1.87
2019-01-27T14:26:47.380Z,2.10
2019-01-27T14:29:15.616Z,1.73
2019-01-27T14:31:43.865Z,1.90
2019-01-27T14:34:13.467Z,1.67
2019-01-27T14:36:41.797Z,1.90
2019-01-27T14:39:10.026Z,2.03
2019-01-27T14:41:38.290Z,1.90
2019-01-27T14:44:06.569Z,1.63
2019-01-27T14:46:34.822Z,1.90
2019-01-27T14:49:03.064Z,1.63
2019-01-27T14:51:31.347Z,2.07
2019-01-27T14:53:59.595Z,2.30
2019-01-27T14:56:27.905Z,2.50
2019-01-27T14:58:56.099Z,2.20
2019-01-27T15:01:24.366Z,1.87
2019-01-27T15:03:52.650Z,1.53
2019-01-27T15:06:20.870Z,1.50
2019-01-27T15:08:49.230Z,1.40
2019-01-27T15:11:17.558Z,1.30
2019-01-27T15:13:45.846Z,1.33
2019-01-27T15:16:14.135Z,1.60
2019-01-27T15:18:42.397Z,2.43
2019-01-27T15:21:15.034Z,1.50
2019-01-27T15:23:43.303Z,1.83
2019-01-27T15:26:11.555Z,2.00
2019-01-27T15:28:39.852Z,2.10
2019-01-27T15:31:08.119Z,1.77
2019-01-27T15:33:36.475Z,1.70
2019-01-27T15:36:05.464Z,1.97
2019-01-27T15:38:33.927Z,1.90
2019-01-27T15:41:02.299Z,2.10
2019-01-27T15:43:31.226Z,2.20
2019-01-27T15:45:59.577Z,2.13
2019-01-27T15:48:27.878Z,2.20
2019-01-27T15:50:56.089Z,1.93
2019-01-27T15:53:24.354Z,2.40
2019-01-27T15:55:52.910Z,2.30
2019-01-27T15:58:21.213Z,3.20
2019-01-27T16:00:49.506Z,2.40
2019-01-27T16:03:17.786Z,2.03
2019-01-27T16:05:46.052Z,1.93
2019-01-27T16:08:14.335Z,1.90
2019-01-27T16:10:43.235Z,1.70
2019-01-27T16:13:11.521Z,2.00
2019-01-27T16:15:39.815Z,1.67
2019-01-27T16:18:08.128Z,1.90
2019-01-27T16:20:36.430Z,2.37
2019-01-27T16:23:20.875Z,2.20
2019-01-27T16:25:49.150Z,2.17
2019-01-27T16:28:17.454Z,2.30
2019-01-27T16:31:25.341Z,1.87
2019-01-27T16:34:01.976Z,2.10
2019-01-27T16:36:31.365Z,2.10
2019-01-27T16:38:58.472Z,1.80
2019-01-27T16:41:26.694Z,2.00
2019-01-27T16:43:54.923Z,1.70
2019-01-27T16:46:23.449Z,1.43
2019-01-27T16:48:51.718Z,2.50
2019-01-27T16:51:20.113Z,2.10
2019-01-27T16:53:48.348Z,1.67
2019-01-27T16:56:16.686Z,1.80
2019-01-27T16:58:44.977Z,1.60
2019-01-27T17:01:13.242Z,1.97
2019-01-27T17:03:41.559Z,1.90
2019-01-27T17:06:09.834Z,1.90
2019-01-27T17:08:38.312Z,1.63
2019-01-27T17:11:06.547Z,1.43
2019-01-27T17:13:36.134Z,1.47
2019-01-27T17:16:03.190Z,1.80
2019-01-27T17:18:31.443Z,1.77
2019-01-27T17:20:59.753Z,2.00
2019-01-27T17:23:28.882Z,1.80
2019-01-27T17:25:57.189Z,1.70
2019-01-27T17:28:25.505Z,1.37
2019-01-27T17:30:54.302Z,1.50
2019-01-27T17:33:22.580Z,1.40
2019-01-27T17:44:29.356Z,1.30
2019-01-27T17:46:57.730Z,1.60
2019-01-27T17:49:26.100Z,1.17
2019-01-27T17:51:55.124Z,1.23
2019-01-27T17:54:24.524Z,1.53
2019-01-27T17:56:56.341Z,1.40
2019-01-27T17:59:29.907Z,1.50
2019-01-27T18:02:02.481Z,1.20
2019-01-27T18:04:35.085Z,1.10
2019-01-27T18:08:08.343Z,1.20
2019-01-27T18:10:45.108Z,1.37
2019-01-27T18:13:18.392Z,1.20
2019-01-27T18:15:46.692Z,1.10
2019-01-27T18:18:15.379Z,1.20
2019-01-27T18:20:43.876Z,1.40
2019-01-27T18:31:51.664Z,2.67
2019-01-27T18:34:19.946Z,2.17
2019-01-27T18:36:48.297Z,2.00
2019-01-27T18:39:16.658Z,2.00
2019-01-27T18:41:44.963Z,1.70
2019-01-27T18:44:13.774Z,1.63
2019-01-27T18:46:42.046Z,1.60
2019-01-27T18:49:10.278Z,1.90
2019-01-27T18:51:38.567Z,1.90
2019-01-27T18:54:16.836Z,1.70
2019-01-27T18:56:51.303Z,1.40
2019-01-27T18:59:32.829Z,1.47
2019-01-27T19:02:05.327Z,1.53
2019-01-27T19:04:42.988Z,1.47
2019-01-27T19:07:19.496Z,1.43
2019-01-27T19:09:52.000Z,1.53
2019-01-27T19:12:33.622Z,1.37
2019-01-27T19:15:06.214Z,1.30
2019-01-27T19:19:42.435Z,1.20
2019-01-27T19:22:20.982Z,1.27
2019-01-27T19:24:54.668Z,3.20
2019-01-27T19:27:29.068Z,2.90
2019-01-27T19:30:02.601Z,2.83
2019-01-27T19:33:33.214Z,2.40
2019-01-27T19:36:08.678Z,1.70
2019-01-27T19:39:42.883Z,1.10
2019-01-27T19:42:18.368Z,1.07
2019-01-27T19:44:56.787Z,1.50
2019-01-27T19:47:40.258Z,1.63
2019-01-27T19:51:17.199Z,1.80
2019-01-27T19:53:49.914Z,1.97
2019-01-27T19:56:22.402Z,2.17
2019-01-27T19:58:55.973Z,1.90
2019-01-27T20:01:29.451Z,1.30
2019-01-27T20:06:05.622Z,1.30
2019-01-27T20:08:39.367Z,1.20
2019-01-27T20:11:18.939Z,1.00
2019-01-27T20:14:05.657Z,1.10
2019-01-27T20:16:38.157Z,1.00
2019-01-27T20:19:12.261Z,1.30
2019-01-27T20:21:53.252Z,1.70
2019-01-27T20:24:21.539Z,1.70
2019-01-27T20:26:55.215Z,1.10
2019-01-27T20:29:27.704Z,1.20
2019-01-27T20:32:04.175Z,1.10
2019-01-27T20:34:39.516Z,1.00
2019-01-27T20:37:18.931Z,1.20
2019-01-27T20:39:51.539Z,1.20
2019-01-27T20:44:28.345Z,1.10
2019-01-27T20:47:05.638Z,1.40
2019-01-27T20:49:47.177Z,1.40
2019-01-27T20:52:25.595Z,1.47
2019-01-27T20:55:00.279Z,2.03
2019-01-27T20:57:33.726Z,1.90
2019-01-27T21:00:06.216Z,1.60
2019-01-27T21:02:38.763Z,2.00
2019-01-27T21:05:18.490Z,3.30
2019-01-27T21:07:54.842Z,3.73
2019-01-27T21:10:38.524Z,3.13
2019-01-27T21:13:11.978Z,3.00
2019-01-27T21:15:50.510Z,3.47
2019-01-27T21:18:23.141Z,2.80
2019-01-27T21:20:53.541Z,2.37
2019-01-27T21:23:19.679Z,2.93
2019-01-27T21:25:47.974Z,2.90
2019-01-27T21:28:16.235Z,2.70
2019-01-27T21:30:44.526Z,2.90
2019-01-27T21:33:12.807Z,3.10
2019-01-27T21:35:41.086Z,2.63
2019-01-27T21:38:09.325Z,2.67
2019-01-27T21:40:37.549Z,2.33
2019-01-27T21:43:05.868Z,2.40
2019-01-27T21:45:34.193Z,2.10
2019-01-27T21:48:02.456Z,2.33
2019-01-27T21:50:30.694Z,2.27
2019-01-27T21:52:59.075Z,2.77
2019-01-27T21:55:27.346Z,2.53
2019-01-27T21:57:57.111Z,2.80
2019-01-27T22:00:25.347Z,2.70
2019-01-27T22:02:53.623Z,2.90
2019-01-27T22:05:21.867Z,2.70
2019-01-27T22:07:50.114Z,3.10
2019-01-27T22:10:18.363Z,3.10
2019-01-27T22:12:46.658Z,2.70
2019-01-27T22:15:14.946Z,3.00
2019-01-27T22:17:43.144Z,3.37
2019-01-27T22:20:13.382Z,2.70
2019-01-27T22:22:41.625Z,3.17
2019-01-27T22:25:10.629Z,3.17
2019-01-27T22:27:38.840Z,2.87
2019-01-27T22:30:10.390Z,2.70
2019-01-27T22:32:38.742Z,3.27
2019-01-27T22:35:08.126Z,3.00
2019-01-27T22:37:36.432Z,2.60
2019-01-27T22:40:06.046Z,2.80
2019-01-27T22:42:34.274Z,3.03
2019-01-27T22:45:02.531Z,2.90
2019-01-27T22:47:30.774Z,2.67
2019-01-27T22:49:59.027Z,2.57
2019-01-27T22:52:27.289Z,2.60
2019-01-27T22:54:55.550Z,2.40
2019-01-27T22:57:23.823Z,2.40
2019-01-27T22:59:52.139Z,2.70
2019-01-27T23:02:21.388Z,2.40
2019-01-27T23:04:49.830Z,2.80
2019-01-27T23:07:18.066Z,2.30
2019-01-27T23:09:47.075Z,2.23
2019-01-27T23:12:15.324Z,2.33
2019-01-27T23:14:43.583Z,2.63
2019-01-27T23:17:11.842Z,2.40
2019-01-27T23:19:40.102Z,2.40
2019-01-27T23:22:08.401Z,2.53
2019-01-27T23:24:36.790Z,3.08
2019-01-27T23:27:05.072Z,2.90
2019-01-27T23:29:33.295Z,2.60
2019-01-27T23:32:01.541Z,2.80
2019-01-27T23:34:30.583Z,2.80
2019-01-27T23:36:58.823Z,2.73
2019-01-27T23:39:27.234Z,2.80
2019-01-27T23:41:55.590Z,2.77
2019-01-27T23:44:23.838Z,3.60
2019-01-27T23:46:52.763Z,2.83
2019-01-27T23:49:21.057Z,3.13
2019-01-27T23:51:49.338Z,3.23
2019-01-27T23:54:17.594Z,3.40
2019-01-27T23:56:46.519Z,3.37
2019-01-27T23:59:14.755Z,3.80
